createdAt,value
2023-03-05T00:00:22.098Z,96528.50
2023-03-05T00:02:55.246Z,96533.28
2023-03-05T00:05:25.793Z,96525.84
2023-03-05T00:07:56.608Z,96525.66
2023-03-05T00:10:27.202Z,96525.50
2023-03-05T00:12:57.808Z,96524.34
2023-03-05T00:15:28.398Z,96530.47
2023-03-05T00:18:01.522Z,96533.78
2023-03-05T00:20:32.150Z,96523.03
2023-03-05T00:23:02.841Z,96514.28
2023-03-05T00:25:33.426Z,96525.69
2023-03-05T00:28:03.966Z,96521.38
2023-03-05T00:30:35.342Z,96513.59
2023-03-05T00:33:08.809Z,96515.59
2023-03-05T00:35:43.393Z,96510.31
2023-03-05T00:38:14.738Z,96502.03
2023-03-05T00:40:45.342Z,96501.66
2023-03-05T00:43:16.217Z,96498.31
2023-03-05T00:45:46.724Z,96498.56
2023-03-05T00:48:19.950Z,96494.94
2023-03-05T00:50:50.474Z,96494.25
2023-03-05T00:53:21.217Z,96498.25
2023-03-05T00:55:51.917Z,96491.56
2023-03-05T00:58:23.910Z,96482.47
2023-03-05T01:00:54.429Z,96491.06
2023-03-05T01:03:27.641Z,96487.25
2023-03-05T01:05:59.576Z,96485.97
2023-03-05T01:08:30.843Z,96488.22
2023-03-05T01:11:01.463Z,96492.84
2023-03-05T01:13:32.276Z,96492.63
2023-03-05T01:16:03.597Z,96495.81
2023-03-05T01:18:37.651Z,96489.19
2023-03-05T01:21:09.051Z,96498.72
2023-03-05T01:23:40.350Z,96497.47
2023-03-05T01:26:11.018Z,96496.56
2023-03-05T01:28:41.570Z,96490.00
2023-03-05T01:31:12.876Z,96487.84
2023-03-05T01:33:46.140Z,96486.81
2023-03-05T01:36:18.588Z,96489.69
2023-03-05T01:38:50.704Z,96491.66
2023-03-05T01:41:22.240Z,96492.69
2023-03-05T01:43:53.569Z,96477.38
2023-03-05T01:46:36.741Z,96484.66
2023-03-05T01:49:19.329Z,96491.41
2023-03-05T01:51:58.017Z,96488.38
2023-03-05T01:54:32.164Z,96484.13
2023-03-05T01:57:07.962Z,96487.59
2023-03-05T01:59:41.084Z,96488.69
2023-03-05T02:02:12.283Z,96470.84
2023-03-05T02:04:49.324Z,96473.31
2023-03-05T02:07:20.652Z,96480.50
2023-03-05T02:09:51.928Z,96482.72
2023-03-05T02:12:22.642Z,96484.78
2023-03-05T02:15:15.004Z,96484.22
2023-03-05T02:17:45.505Z,96489.19
2023-03-05T02:20:20.849Z,96493.22
2023-03-05T02:22:54.171Z,96490.63
2023-03-05T02:25:27.728Z,96479.94
2023-03-05T02:28:03.122Z,96488.69
2023-03-05T02:30:33.816Z,96487.88
2023-03-05T02:33:04.502Z,96492.38
2023-03-05T02:35:36.041Z,96492.53
2023-03-05T02:38:09.983Z,96492.72
2023-03-05T02:40:41.586Z,96494.06
2023-03-05T02:43:12.986Z,96497.88
2023-03-05T02:45:44.484Z,96495.72
2023-03-05T02:48:15.049Z,96498.88
2023-03-05T02:50:46.724Z,96495.09
2023-03-05T02:53:19.810Z,96501.03
2023-03-05T02:55:50.925Z,96497.41
2023-03-05T02:58:21.739Z,96503.34
2023-03-05T03:00:52.392Z,96496.25
2023-03-05T03:03:23.009Z,96504.00
2023-03-05T03:05:53.883Z,96494.25
2023-03-05T03:08:27.142Z,96496.75
2023-03-05T03:10:58.113Z,96488.63
2023-03-05T03:13:28.743Z,96490.44
2023-03-05T03:16:05.780Z,96489.44
2023-03-05T03:18:36.871Z,96491.41
2023-03-05T03:21:09.356Z,96498.63
2023-03-05T03:23:42.441Z,96498.00
2023-03-05T03:26:12.957Z,96500.28
2023-03-05T03:28:43.895Z,96495.00
2023-03-05T03:31:14.780Z,96488.38
2023-03-05T03:33:45.534Z,96488.03
2023-03-05T03:36:16.312Z,96489.72
2023-03-05T03:38:49.507Z,96482.44
2023-03-05T03:41:20.113Z,96493.34
2023-03-05T03:43:50.724Z,96491.66
2023-03-05T03:46:21.454Z,96510.09
2023-03-05T03:48:53.606Z,96500.75
2023-03-05T03:51:24.155Z,96500.44
2023-03-05T03:53:58.059Z,96501.41
2023-03-05T03:56:28.661Z,96502.59
2023-03-05T03:59:00.220Z,96495.81
2023-03-05T04:01:30.823Z,96505.03
2023-03-05T04:04:01.363Z,96500.28
2023-03-05T04:06:31.977Z,96495.50
2023-03-05T04:09:05.126Z,96506.38
2023-03-05T04:11:35.679Z,96501.22
2023-03-05T04:14:06.533Z,96495.72
2023-03-05T04:16:37.176Z,96504.03
2023-03-05T04:19:07.740Z,96495.63
2023-03-05T04:21:38.332Z,96492.53
2023-03-05T04:24:12.233Z,96488.22
2023-03-05T04:26:42.766Z,96490.00
2023-03-05T04:29:13.234Z,96497.66
2023-03-05T04:31:43.742Z,96502.28
2023-03-05T04:34:14.378Z,96483.47
2023-03-05T04:36:45.005Z,96485.19
2023-03-05T04:39:21.153Z,96497.28
2023-03-05T04:41:51.690Z,96485.91
2023-03-05T04:44:23.500Z,96489.41
2023-03-05T04:46:54.123Z,96494.38
2023-03-05T04:49:24.676Z,96488.59
2023-03-05T04:51:55.224Z,96490.50
2023-03-05T04:54:28.386Z,96480.19
2023-03-05T04:56:58.927Z,96495.31
2023-03-05T04:59:29.491Z,96489.91
2023-03-05T05:02:00.184Z,96497.31
2023-03-05T05:04:30.756Z,96496.53
2023-03-05T05:07:02.568Z,96490.44
2023-03-05T05:09:35.827Z,96494.63
2023-03-05T05:12:06.594Z,96502.75
2023-03-05T05:14:37.537Z,96508.88
2023-03-05T05:17:08.214Z,96508.97
2023-03-05T05:19:39.121Z,96502.94
2023-03-05T05:22:09.784Z,96513.03
2023-03-05T05:24:43.050Z,96505.78
2023-03-05T05:27:13.741Z,96511.47
2023-03-05T05:29:46.589Z,96513.50
2023-03-05T05:32:17.260Z,96529.47
2023-03-05T05:34:47.796Z,96525.16
2023-03-05T05:37:18.308Z,96523.75
2023-03-05T05:39:51.590Z,96522.97
2023-03-05T05:42:23.046Z,96523.47
2023-03-05T05:44:55.617Z,96518.91
2023-03-05T05:47:26.373Z,96517.63
2023-03-05T05:49:56.877Z,96527.81
2023-03-05T05:52:27.620Z,96525.44
2023-03-05T05:55:00.767Z,96518.16
2023-03-05T05:57:31.366Z,96530.72
2023-03-05T06:00:01.829Z,96526.16
2023-03-05T06:02:42.401Z,96528.53
2023-03-05T06:05:16.570Z,96530.69
2023-03-05T06:07:47.064Z,96537.44
2023-03-05T06:10:22.673Z,96530.28
2023-03-05T06:12:52.801Z,96536.31
2023-03-05T06:15:23.296Z,96536.16
2023-03-05T06:17:54.872Z,96537.22
2023-03-05T06:20:25.422Z,96538.22
2023-03-05T06:22:56.020Z,96541.56
2023-03-05T06:25:29.201Z,96541.53
2023-03-05T06:27:59.964Z,96545.84
2023-03-05T06:30:30.494Z,96542.56
2023-03-05T06:33:01.154Z,96541.75
2023-03-05T06:35:31.718Z,96546.16
2023-03-05T06:38:02.254Z,96545.53
2023-03-05T06:40:35.423Z,96543.25
2023-03-05T06:43:05.966Z,96546.91
2023-03-05T06:45:36.534Z,96553.41
2023-03-05T06:48:07.626Z,96555.56
2023-03-05T06:50:38.581Z,96548.94
2023-03-05T06:53:09.182Z,96551.28
2023-03-05T06:55:42.642Z,96552.59
2023-03-05T06:58:13.256Z,96543.66
2023-03-05T07:00:43.736Z,96551.28
2023-03-05T07:03:14.345Z,96549.28
2023-03-05T07:05:45.598Z,96549.00
2023-03-05T07:08:16.045Z,96543.38
2023-03-05T07:10:49.157Z,96543.88
2023-03-05T07:13:19.614Z,96540.56
2023-03-05T07:15:50.112Z,96535.59
2023-03-05T07:18:20.717Z,96545.19
2023-03-05T07:20:51.394Z,96536.59
2023-03-05T07:23:21.777Z,96543.72
2023-03-05T07:25:54.833Z,96545.84
2023-03-05T07:28:25.417Z,96540.41
2023-03-05T07:31:00.588Z,96535.44
2023-03-05T07:33:32.245Z,96542.03
2023-03-05T07:36:04.632Z,96529.97
2023-03-05T07:38:35.362Z,96538.06
2023-03-05T07:41:11.059Z,96541.19
2023-03-05T07:43:41.747Z,96531.09
2023-03-05T07:46:15.698Z,96534.25
2023-03-05T07:48:46.839Z,96528.81
2023-03-05T07:51:19.321Z,96523.81
2023-03-05T07:53:51.594Z,96524.78
2023-03-05T07:56:30.093Z,96515.16
2023-03-05T07:59:00.661Z,96517.06
2023-03-05T08:01:31.494Z,96516.69
2023-03-05T08:04:02.269Z,96521.75
2023-03-05T08:06:33.391Z,96523.34
2023-03-05T08:09:04.125Z,96522.38
2023-03-05T08:11:37.305Z,96507.81
2023-03-05T08:14:07.834Z,96508.91
2023-03-05T08:16:38.861Z,96513.28
2023-03-05T08:19:09.700Z,96509.53
2023-03-05T08:21:40.650Z,96502.88
2023-03-05T08:24:11.981Z,96494.97
2023-03-05T08:26:45.629Z,96508.28
2023-03-05T08:29:16.138Z,96507.69
2023-03-05T08:31:49.062Z,96490.78
2023-03-05T08:34:19.553Z,96496.03
2023-03-05T08:36:50.699Z,96483.47
2023-03-05T08:39:21.985Z,96484.84
2023-03-05T08:41:55.338Z,96481.72
2023-03-05T08:44:25.759Z,96477.91
2023-03-05T08:46:56.485Z,96472.78
2023-03-05T08:49:27.512Z,96467.13
2023-03-05T08:51:58.058Z,96471.91
2023-03-05T08:54:28.562Z,96467.31
2023-03-05T08:57:01.827Z,96461.97
2023-03-05T08:59:32.616Z,96462.81
2023-03-05T09:02:04.254Z,96464.84
2023-03-05T09:04:34.845Z,96459.19
2023-03-05T09:07:05.405Z,96447.22
2023-03-05T09:09:36.238Z,96453.38
2023-03-05T09:12:12.123Z,96445.81
2023-03-05T09:14:43.056Z,96438.19
2023-03-05T09:17:13.578Z,96437.84
2023-03-05T09:19:44.247Z,96439.75
2023-03-05T09:22:15.513Z,96442.63
2023-03-05T09:24:46.034Z,96441.91
2023-03-05T09:27:19.223Z,96427.69
2023-03-05T09:29:49.830Z,96435.16
2023-03-05T09:32:20.430Z,96428.41
2023-03-05T09:34:51.003Z,96428.06
2023-03-05T09:37:22.339Z,96419.25
2023-03-05T09:39:54.238Z,96416.69
2023-03-05T09:43:01.453Z,96413.22
2023-03-05T09:45:38.631Z,96410.03
2023-03-05T09:48:16.634Z,96418.44
2023-03-05T09:50:51.374Z,96408.47
2023-03-05T09:53:33.350Z,96410.72
2023-03-05T09:56:09.074Z,96402.16
2023-03-05T09:58:44.334Z,96393.75
2023-03-05T10:01:18.695Z,96395.22
2023-03-05T10:03:59.985Z,96394.81
2023-03-05T10:06:34.653Z,96381.47
2023-03-05T10:09:10.202Z,96374.50
2023-03-05T10:11:45.867Z,96373.44
2023-03-05T10:14:26.861Z,96375.94
2023-03-05T10:17:06.373Z,96375.75
2023-03-05T10:20:11.776Z,96373.69
2023-03-05T10:22:54.843Z,96371.25
2023-03-05T10:25:29.716Z,96368.19
2023-03-05T10:28:07.556Z,96363.84
2023-03-05T10:31:00.074Z,96360.78
2023-03-05T10:33:38.435Z,96356.00
2023-03-05T10:36:33.288Z,96357.59
2023-03-05T10:39:42.555Z,96341.16
2023-03-05T10:42:25.301Z,96353.50
2023-03-05T10:44:57.882Z,96345.28
2023-03-05T10:47:38.915Z,96337.50
2023-03-05T10:50:19.553Z,96342.59
2023-03-05T10:52:55.720Z,96333.31
2023-03-05T10:55:26.620Z,96330.44
2023-03-05T10:57:57.231Z,96326.50
2023-03-05T11:00:29.812Z,96334.75
2023-03-05T11:03:05.053Z,96313.31
2023-03-05T11:05:44.211Z,96317.47
2023-03-05T11:08:27.963Z,96303.13
2023-03-05T11:11:14.545Z,96297.81
2023-03-05T11:13:54.916Z,96295.78
2023-03-05T11:16:28.236Z,96286.34
2023-03-05T11:19:30.161Z,96284.72
2023-03-05T11:22:17.706Z,96287.13
2023-03-05T11:25:05.711Z,96283.00
2023-03-05T11:27:41.958Z,96276.00
2023-03-05T11:30:23.185Z,96271.88
2023-03-05T11:32:53.707Z,96268.63
2023-03-05T11:35:37.619Z,96251.16
2023-03-05T11:38:18.228Z,96265.34
2023-03-05T11:40:49.987Z,96255.06
2023-03-05T11:43:22.596Z,96262.69
2023-03-05T11:45:56.795Z,96257.53
2023-03-05T11:48:31.650Z,96252.13
2023-03-05T11:51:10.864Z,96241.81
2023-03-05T11:53:42.423Z,96239.75
2023-03-05T11:56:21.946Z,96235.69
2023-03-05T11:58:57.874Z,96232.03
2023-03-05T12:01:31.338Z,96229.78
2023-03-05T12:04:03.156Z,96226.34
2023-03-05T12:06:41.123Z,96224.03
2023-03-05T12:09:16.904Z,96215.19
2023-03-05T12:11:48.179Z,96213.16
2023-03-05T12:14:25.386Z,96213.94
2023-03-05T12:17:01.650Z,96213.06
2023-03-05T12:19:50.787Z,96217.00
2023-03-05T12:22:26.359Z,96206.38
2023-03-05T12:24:57.000Z,96207.25
2023-03-05T12:27:40.387Z,96208.47
2023-03-05T12:30:47.429Z,96216.34
2023-03-05T12:33:34.764Z,96222.78
2023-03-05T12:36:35.183Z,96222.88
2023-03-05T12:39:52.968Z,96212.16
2023-03-05T12:42:49.090Z,96207.38
2023-03-05T12:45:37.658Z,96201.44
2023-03-05T12:48:45.550Z,96203.25
2023-03-05T12:51:31.995Z,96198.31
2023-03-05T12:54:27.847Z,96205.03
2023-03-05T12:57:00.042Z,96202.38
2023-03-05T12:59:41.221Z,96193.41
2023-03-05T13:02:24.606Z,96200.94
2023-03-05T13:05:00.454Z,96194.50
2023-03-05T13:07:34.254Z,96201.81
2023-03-05T13:10:07.800Z,96204.41
2023-03-05T13:12:39.732Z,96185.75
2023-03-05T13:15:17.620Z,96185.81
2023-03-05T13:17:57.494Z,96193.31
2023-03-05T13:20:37.972Z,96189.69
2023-03-05T13:23:21.284Z,96199.66
2023-03-05T13:26:15.656Z,96204.03
2023-03-05T13:28:47.358Z,96197.59
2023-03-05T13:31:21.459Z,96195.50
2023-03-05T13:33:57.250Z,96201.97
2023-03-05T13:36:29.585Z,96189.59
2023-03-05T13:39:00.810Z,96183.34
2023-03-05T13:41:33.995Z,96182.53
2023-03-05T13:44:06.216Z,96179.88
2023-03-05T13:46:38.826Z,96180.22
2023-03-05T13:49:24.645Z,96174.41
2023-03-05T13:51:57.611Z,96182.63
2023-03-05T13:54:31.044Z,96178.00
2023-03-05T13:57:06.671Z,96176.94
2023-03-05T13:59:39.432Z,96177.47
2023-03-05T14:02:20.962Z,96176.44
2023-03-05T14:04:53.407Z,96165.53
2023-03-05T14:07:33.138Z,96155.34
2023-03-05T14:10:05.819Z,96155.50
2023-03-05T14:12:42.972Z,96162.31
2023-03-05T14:15:25.084Z,96159.09
2023-03-05T14:17:56.586Z,96158.75
2023-03-05T14:20:30.451Z,96152.44
2023-03-05T14:23:03.261Z,96145.09
2023-03-05T14:25:38.317Z,96129.84
2023-03-05T14:28:24.367Z,96141.34
2023-03-05T14:30:57.668Z,96136.84
2023-03-05T14:33:31.683Z,96137.59
2023-03-05T14:36:04.274Z,96135.75
2023-03-05T14:38:36.597Z,96136.44
2023-03-05T14:41:23.509Z,96138.53
2023-03-05T14:43:56.603Z,96136.31
2023-03-05T14:46:27.481Z,96131.13
2023-03-05T14:48:58.341Z,96126.22
2023-03-05T14:51:29.538Z,96129.22
2023-03-05T14:54:00.209Z,96126.41
2023-03-05T14:56:32.014Z,96123.81
2023-03-05T14:59:05.275Z,96117.31
2023-03-05T15:01:35.980Z,96108.31
2023-03-05T15:04:06.563Z,96124.09
2023-03-05T15:06:40.197Z,96128.41
2023-03-05T15:09:11.207Z,96128.81
2023-03-05T15:11:41.638Z,96127.09
2023-03-05T15:14:15.393Z,96133.09
2023-03-05T15:16:49.077Z,96131.13
2023-03-05T15:19:20.639Z,96127.84
2023-03-05T15:21:52.033Z,96134.25
2023-03-05T15:24:22.581Z,96125.88
2023-03-05T15:26:53.100Z,96130.47
2023-03-05T15:29:26.198Z,96127.63
2023-03-05T15:31:56.832Z,96130.31
2023-03-05T15:34:27.482Z,96131.44
2023-03-05T15:36:58.597Z,96131.66
2023-03-05T15:39:29.239Z,96128.69
2023-03-05T15:42:00.278Z,96131.59
2023-03-05T15:44:33.430Z,96125.38
2023-03-05T15:47:04.003Z,96127.78
2023-03-05T15:49:34.565Z,96131.34
2023-03-05T15:52:05.085Z,96139.00
2023-03-05T15:54:35.707Z,96143.47
2023-03-05T15:57:06.580Z,96136.06
2023-03-05T15:59:40.002Z,96141.66
2023-03-05T16:02:10.920Z,96130.38
2023-03-05T16:04:41.487Z,96139.50
2023-03-05T16:07:12.963Z,96148.44
2023-03-05T16:09:48.277Z,96147.00
2023-03-05T16:12:23.272Z,96151.53
2023-03-05T16:14:56.541Z,96149.88
2023-03-05T16:17:27.763Z,96155.63
2023-03-05T16:19:59.368Z,96152.69
2023-03-05T16:22:30.865Z,96158.28
2023-03-05T16:25:01.620Z,96161.88
2023-03-05T16:27:33.960Z,96161.69
2023-03-05T16:30:07.987Z,96162.84
2023-03-05T16:32:40.211Z,96169.75
2023-03-05T16:35:12.518Z,96168.78
2023-03-05T16:37:43.568Z,96175.91
2023-03-05T16:40:15.860Z,96177.44
2023-03-05T16:42:46.812Z,96186.66
2023-03-05T16:45:20.245Z,96185.00
2023-03-05T16:47:52.630Z,96185.97
2023-03-05T16:50:23.726Z,96183.97
2023-03-05T16:52:54.506Z,96191.31
2023-03-05T16:55:25.187Z,96188.47
2023-03-05T16:57:56.105Z,96187.41
2023-03-05T17:00:29.717Z,96190.09
2023-03-05T17:03:00.242Z,96192.66
2023-03-05T17:05:30.919Z,96196.56
2023-03-05T17:08:02.418Z,96204.09
2023-03-05T17:10:33.350Z,96209.16
2023-03-05T17:13:04.007Z,96200.72
2023-03-05T17:15:37.387Z,96209.22
2023-03-05T17:18:08.782Z,96218.13
2023-03-05T17:20:39.748Z,96218.41
2023-03-05T17:23:11.329Z,96215.94
2023-03-05T17:25:42.279Z,96227.44
2023-03-05T17:28:13.590Z,96229.78
2023-03-05T17:30:47.367Z,96240.19
2023-03-05T17:33:18.109Z,96244.47
2023-03-05T17:35:50.254Z,96243.69
2023-03-05T17:38:21.203Z,96243.00
2023-03-05T17:40:52.482Z,96240.09
2023-03-05T17:43:23.236Z,96248.59
2023-03-05T17:45:59.989Z,96247.69
2023-03-05T17:48:31.615Z,96213.09
2023-03-05T17:51:02.293Z,96253.28
2023-03-05T17:53:32.973Z,96251.13
2023-03-05T17:56:03.659Z,96248.44
2023-03-05T17:58:34.622Z,96257.06
2023-03-05T18:01:09.145Z,96259.72
2023-03-05T18:03:40.222Z,96258.44
2023-03-05T18:06:11.047Z,96263.63
2023-03-05T18:08:41.774Z,96265.13
2023-03-05T18:11:12.492Z,96264.44
2023-03-05T18:13:43.521Z,96266.06
2023-03-05T18:16:18.498Z,96261.59
2023-03-05T18:18:49.140Z,96269.03
2023-03-05T18:21:22.999Z,96270.09
2023-03-05T18:23:54.419Z,96268.09
2023-03-05T18:26:25.456Z,96265.94
2023-03-05T18:28:56.490Z,96270.44
2023-03-05T18:31:29.858Z,96268.78
2023-03-05T18:34:00.587Z,96270.75
2023-03-05T18:36:31.333Z,96272.09
2023-03-05T18:39:02.023Z,96276.41
2023-03-05T18:41:33.890Z,96279.41
2023-03-05T18:44:05.127Z,96282.38
2023-03-05T18:46:38.613Z,96286.66
2023-03-05T18:49:09.698Z,96298.53
2023-03-05T18:51:40.506Z,96303.75
2023-03-05T18:54:11.412Z,96296.50
2023-03-05T18:56:42.478Z,96304.63
2023-03-05T18:59:13.143Z,96305.63
2023-03-05T19:01:46.634Z,96302.31
2023-03-05T19:04:17.271Z,96304.97
2023-03-05T19:06:48.349Z,96308.47
2023-03-05T19:09:46.160Z,96309.50
2023-03-05T19:12:19.739Z,96314.94
2023-03-05T19:14:50.348Z,96325.66
2023-03-05T19:17:23.630Z,96326.00
2023-03-05T19:19:54.847Z,96326.78
2023-03-05T19:22:27.079Z,96336.50
2023-03-05T19:24:57.738Z,96326.66
2023-03-05T19:27:29.318Z,96334.19
2023-03-05T19:30:00.397Z,96329.44
2023-03-05T19:32:33.683Z,96328.59
2023-03-05T19:35:04.856Z,96339.22
2023-03-05T19:37:35.411Z,96341.94
2023-03-05T19:40:06.330Z,96341.22
2023-03-05T19:42:38.292Z,96344.16
2023-03-05T19:45:10.333Z,96349.03
2023-03-05T19:47:43.529Z,96351.31
2023-03-05T19:50:17.849Z,96355.16
2023-03-05T19:52:48.501Z,96354.00
2023-03-05T19:55:19.222Z,96364.22
2023-03-05T19:57:49.895Z,96368.47
2023-03-05T20:00:22.133Z,96367.06
2023-03-05T20:02:55.309Z,96362.38
2023-03-05T20:05:26.792Z,96370.72
2023-03-05T20:07:57.529Z,96375.06
2023-03-05T20:10:28.105Z,96366.44
2023-03-05T20:12:58.949Z,96363.16
2023-03-05T20:15:29.958Z,96369.44
2023-03-05T20:18:03.185Z,96372.22
2023-03-05T20:20:33.935Z,96377.16
2023-03-05T20:23:04.604Z,96372.88
2023-03-05T20:25:35.308Z,96370.75
2023-03-05T20:28:05.832Z,96370.41
2023-03-05T20:30:36.440Z,96368.13
2023-03-05T20:33:09.702Z,96372.22
2023-03-05T20:35:40.504Z,96374.47
2023-03-05T20:38:30.429Z,96376.16
2023-03-05T20:41:02.649Z,96377.66
2023-03-05T20:43:35.262Z,96371.69
2023-03-05T20:46:06.874Z,96375.03
2023-03-05T20:48:40.260Z,96379.22
2023-03-05T20:51:15.669Z,96373.81
2023-03-05T20:53:46.480Z,96367.84
2023-03-05T20:56:17.090Z,96369.03
2023-03-05T20:58:47.936Z,96371.72
2023-03-05T21:01:18.780Z,96366.59
2023-03-05T21:03:53.940Z,96376.94
2023-03-05T21:06:24.525Z,96380.44
2023-03-05T21:08:55.341Z,96372.38
2023-03-05T21:11:26.562Z,96365.13
2023-03-05T21:13:57.274Z,96365.06
2023-03-05T21:16:30.033Z,96362.88
2023-03-05T21:19:03.741Z,96365.41
2023-03-05T21:21:34.419Z,96357.34
2023-03-05T21:24:05.266Z,96354.19
2023-03-05T21:26:36.313Z,96357.28
2023-03-05T21:29:06.938Z,96352.16
2023-03-05T21:31:37.742Z,96356.72
2023-03-05T21:34:11.153Z,96357.03
2023-03-05T21:36:41.668Z,96358.16
2023-03-05T21:39:12.337Z,96351.31
2023-03-05T21:41:46.401Z,96356.78
2023-03-05T21:44:17.931Z,96346.47
2023-03-05T21:46:48.406Z,96347.56
2023-03-05T21:49:21.607Z,96353.78
2023-03-05T21:52:09.403Z,96349.06
2023-03-05T21:54:40.556Z,96358.53
2023-03-05T21:57:13.074Z,96351.47
2023-03-05T21:59:44.434Z,96343.72
2023-03-05T22:02:15.407Z,96346.75
2023-03-05T22:04:48.870Z,96353.69
2023-03-05T22:07:20.888Z,96347.88
2023-03-05T22:09:56.566Z,96350.41
2023-03-05T22:13:12.498Z,96353.75
2023-03-05T22:15:47.504Z,96351.25
2023-03-05T22:18:19.987Z,96356.72
2023-03-05T22:20:53.418Z,96345.66
2023-03-05T22:23:27.403Z,96365.72
2023-03-05T22:26:01.800Z,96356.03
2023-03-05T22:28:32.795Z,96362.69
2023-03-05T22:31:03.620Z,96359.19
2023-03-05T22:33:34.921Z,96358.28
2023-03-05T22:36:14.994Z,96355.25
2023-03-05T22:38:45.792Z,96358.31
2023-03-05T22:41:19.905Z,96355.50
2023-03-05T22:43:51.648Z,96340.97
2023-03-05T22:46:24.226Z,96349.50
2023-03-05T22:48:55.225Z,96351.53
2023-03-05T22:51:28.450Z,96352.00
2023-03-05T22:53:59.298Z,96358.41
2023-03-05T22:56:29.799Z,96352.41
2023-03-05T22:59:00.560Z,96363.28
2023-03-05T23:01:31.133Z,96354.19
2023-03-05T23:04:47.829Z,96363.09
2023-03-05T23:07:23.500Z,96350.03
2023-03-05T23:09:56.063Z,96350.72
2023-03-05T23:12:28.196Z,96357.91
2023-03-05T23:14:58.952Z,96351.78
2023-03-05T23:17:29.917Z,96359.97
2023-03-05T23:20:00.400Z,96363.16
2023-03-05T23:22:33.794Z,96360.88
2023-03-05T23:25:04.526Z,96367.44
2023-03-05T23:27:35.298Z,96364.69
2023-03-05T23:30:23.242Z,96376.31
2023-03-05T23:32:56.026Z,96372.09
2023-03-05T23:35:28.847Z,96367.06
2023-03-05T23:38:03.644Z,96372.84
2023-03-05T23:40:35.840Z,96375.03
2023-03-05T23:43:07.292Z,96374.97
2023-03-05T23:45:38.264Z,96378.59
2023-03-05T23:48:09.312Z,96354.25
2023-03-05T23:50:43.235Z,96378.34
2023-03-05T23:53:20.259Z,96385.63
2023-03-05T23:55:51.381Z,96378.31
2023-03-05T23:58:22.710Z,96376.22
